Time;durP1;ratioP1;P1;durP2;ratioP2;P2;SDS_P1;SDS_P2;PMS_P1;PMS_P2;Temp;Humidity;BMP_temperature;BMP_pressure;BME280_temperature;BME280_humidity;BME280_pressure;Samples;Min_cycle;Max_cycle;Signal;HPM_P1;HPM_P2
2022/11/07 00:02:11;;;;;;;;;0.00;0.00;;;;;10.21;77.56;100570.88;5016987;28;45447;-77
2022/11/07 00:04:37;;;;;;;;;1.50;1.50;;;;;10.13;77.83;100565.41;5035115;28;45448;-74
2022/11/07 00:07:03;;;;;;;;;1.00;1.00;;;;;10.03;78.18;100550.28;5019696;28;45412;-73
2022/11/07 00:09:29;;;;;;;;;1.75;1.00;;;;;10.06;78.36;100553.00;5017153;28;45492;-74
2022/11/07 00:11:55;;;;;;;;;0.25;0.25;;;;;10.12;78.26;100561.88;5015595;28;45465;-76
2022/11/07 00:14:21;;;;;;;;;1.00;1.00;;;;;10.06;77.71;100548.66;5016388;28;45472;-73
2022/11/07 00:16:47;;;;;;;;;1.75;1.00;;;;;10.14;77.24;100564.56;5015640;28;45482;-76
2022/11/07 00:19:17;;;;;;;;;1.75;0.75;;;;;10.12;77.27;100559.28;5016380;28;45579;-74
2022/11/07 00:21:42;;;;;;;;;0.75;0.00;;;;;10.07;76.75;100560.00;5015610;28;45329;-76
2022/11/07 00:24:09;;;;;;;;;0.75;0.75;;;;;9.97;76.30;100535.31;5016866;28;45429;-77
2022/11/07 00:26:36;;;;;;;;;0.75;0.00;;;;;9.95;76.29;100531.78;5020115;28;46212;-76
2022/11/07 00:29:02;;;;;;;;;2.00;1.00;;;;;9.93;76.23;100533.44;5031809;28;45374;-78
2022/11/07 00:31:28;;;;;;;;;1.00;0.00;;;;;9.92;76.22;100536.88;5029148;28;45920;-77
2022/11/07 00:33:55;;;;;;;;;1.00;1.00;;;;;9.99;76.84;100556.22;5030510;28;45561;-76
2022/11/07 00:36:27;;;;;;;;;0.50;0.50;;;;;10.03;76.44;100563.34;5024509;28;45479;-78
2022/11/07 00:38:54;;;;;;;;;1.50;0.25;;;;;10.01;76.65;100565.00;5018895;28;45984;-77
2022/11/07 00:41:20;;;;;;;;;2.00;1.00;;;;;9.91;77.21;100546.44;5015601;28;45520;-77
2022/11/07 00:43:46;;;;;;;;;1.50;1.00;;;;;9.90;76.60;100541.16;5015834;28;45501;-77
2022/11/07 00:46:13;;;;;;;;;1.00;0.67;;;;;10.02;76.62;100553.72;5015744;28;46085;-75
2022/11/07 00:48:39;;;;;;;;;0.25;0.00;;;;;9.92;76.79;100542.97;5016212;28;45483;-76
2022/11/07 00:51:14;;;;;;;;;1.00;1.00;;;;;9.91;77.05;100540.34;5017443;28;45474;-75
2022/11/07 00:53:40;;;;;;;;;1.00;1.00;;;;;9.89;77.00;100542.91;5018458;28;45570;-75
2022/11/07 00:56:08;;;;;;;;;0.00;0.00;;;;;9.91;76.30;100542.97;5014074;28;47437;-76
2022/11/07 00:58:34;;;;;;;;;0.00;0.00;;;;;9.80;76.99;100510.41;5015562;28;45850;-78
2022/11/07 01:01:07;;;;;;;;;1.00;1.00;;;;;9.93;76.93;100529.13;5025437;28;45514;-78
2022/11/07 01:06:17;;;;;;;;;1.00;1.00;;;;;9.80;77.26;100516.50;5015759;28;45882;-76
2022/11/07 01:08:42;;;;;;;;;1.50;1.00;;;;;9.71;77.95;100509.28;5021217;28;45613;-77
2022/11/07 01:11:08;;;;;;;;;0.50;0.50;;;;;9.69;77.39;100516.16;5029953;28;45611;-77
2022/11/07 01:13:35;;;;;;;;;1.25;1.25;;;;;9.79;77.62;100529.47;5026333;28;45496;-78
2022/11/07 01:16:01;;;;;;;;;0.50;0.50;;;;;9.71;77.86;100522.31;5034435;28;47671;-77
2022/11/07 01:18:26;;;;;;;;;1.75;1.00;;;;;9.66;78.43;100513.44;5029114;28;45456;-77
2022/11/07 01:20:52;;;;;;;;;1.25;1.00;;;;;9.69;78.21;100521.38;5030857;28;45560;-77
2022/11/07 01:23:18;;;;;;;;;2.00;1.00;;;;;9.68;78.78;100510.88;5031635;28;45448;-78
2022/11/07 01:25:43;;;;;;;;;1.75;1.00;;;;;9.76;79.18;100530.28;5033400;28;45545;-76
2022/11/07 01:28:09;;;;;;;;;2.00;1.50;;;;;9.77;78.86;100537.28;5030034;28;45506;-75
2022/11/07 01:30:43;;;;;;;;;1.00;1.00;;;;;9.79;78.61;100543.44;5029717;28;45362;-78
2022/11/07 01:33:08;;;;;;;;;1.00;1.00;;;;;9.68;77.82;100527.41;5028802;28;45336;-74
2022/11/07 01:35:35;;;;;;;;;1.00;1.00;;;;;9.53;77.18;100495.63;5032386;28;45963;-74
2022/11/07 01:38:01;;;;;;;;;1.50;1.50;;;;;9.70;76.81;100525.75;5030227;28;45382;-76
2022/11/07 01:40:27;;;;;;;;;0.75;0.75;;;;;9.72;76.82;100531.91;5032991;28;45331;-78
2022/11/07 01:42:53;;;;;;;;;1.00;1.00;;;;;9.69;77.01;100534.41;5032566;28;45533;-75
2022/11/07 01:45:29;;;;;;;;;2.25;2.25;;;;;9.68;77.91;100537.84;5028521;28;45984;-75
2022/11/07 01:48:00;;;;;;;;;0.50;0.50;;;;;9.66;77.59;100543.84;5035140;28;45506;-76
2022/11/07 01:50:26;;;;;;;;;0.00;0.00;;;;;9.50;77.83;100517.25;5034531;28;45450;-78
2022/11/07 01:52:55;;;;;;;;;1.75;1.75;;;;;9.51;77.35;100524.25;5034111;28;45597;-76
2022/11/07 01:55:25;;;;;;;;;2.00;1.00;;;;;9.54;77.30;100526.94;5065930;28;45509;-75
2022/11/07 01:58:07;;;;;;;;;1.00;1.00;;;;;9.53;77.66;100526.91;5030273;28;45413;-74
2022/11/07 02:00:34;;;;;;;;;1.00;1.00;;;;;9.58;77.22;100529.69;5033904;28;45370;-78
2022/11/07 02:03:07;;;;;;;;;1.00;0.00;;;;;9.62;77.53;100532.44;5028805;28;45502;-75
2022/11/07 02:06:08;;;;;;;;;0.50;0.50;;;;;9.63;77.47;100525.47;5034550;28;46150;-76
2022/11/07 02:08:35;;;;;;;;;1.25;1.00;;;;;9.48;77.33;100502.41;5018516;28;45479;-76
2022/11/07 02:11:04;;;;;;;;;1.00;1.00;;;;;9.62;77.09;100519.38;5031354;28;45655;-76
2022/11/07 02:13:30;;;;;;;;;1.50;1.50;;;;;9.52;77.12;100497.31;5050593;28;45591;-75
2022/11/07 02:16:00;;;;;;;;;1.00;1.00;;;;;9.51;77.17;100503.41;5035954;28;45319;-78
2022/11/07 02:18:28;;;;;;;;;1.00;1.00;;;;;9.61;77.74;100509.81;5047409;28;45654;-78
2022/11/07 02:20:59;;;;;;;;;1.00;1.00;;;;;9.61;77.65;100509.81;5030360;28;45394;-76
2022/11/07 02:23:47;;;;;;;;;3.00;2.00;;;;;9.49;77.87;100483.28;5033155;28;45511;-74
2022/11/07 02:26:13;;;;;;;;;1.00;1.00;;;;;9.56;78.66;100490.50;5035373;28;45495;-75
2022/11/07 02:28:40;;;;;;;;;1.75;1.75;;;;;9.58;78.75;100493.16;5028010;28;45411;-74
2022/11/07 02:31:06;;;;;;;;;3.00;2.00;;;;;9.52;77.93;100478.19;5028214;28;45484;-75
2022/11/07 02:33:32;;;;;;;;;0.00;0.00;;;;;9.63;78.04;100492.47;5032266;28;45547;-75
2022/11/07 02:35:59;;;;;;;;;2.00;2.00;;;;;9.59;77.62;100474.97;5030690;28;46362;-74
2022/11/07 02:38:36;;;;;;;;;1.00;1.00;;;;;9.56;77.15;100459.19;5032014;28;45349;-74
2022/11/07 02:41:24;;;;;;;;;1.00;1.00;;;;;9.59;77.16;100469.75;5026582;28;45420;-77
2022/11/07 02:44:05;;;;;;;;;1.00;1.00;;;;;9.55;77.54;100465.28;5029437;28;45858;-74
2022/11/07 02:46:31;;;;;;;;;2.00;1.25;;;;;9.48;77.55;100452.84;5036359;28;46165;-78
2022/11/07 02:48:59;;;;;;;;;2.00;1.75;;;;;9.63;78.86;100476.84;5028219;28;45667;-75
2022/11/07 02:51:24;;;;;;;;;1.75;1.75;;;;;9.47;78.97;100458.88;5031566;28;45611;-75
2022/11/07 02:53:51;;;;;;;;;2.00;1.25;;;;;9.53;79.09;100480.88;5029210;28;45378;-75
2022/11/07 02:56:18;;;;;;;;;2.75;1.75;;;;;9.51;79.77;100471.19;5031240;28;47708;-75
2022/11/07 02:58:44;;;;;;;;;1.00;1.00;;;;;9.47;79.99;100470.22;5037503;28;45448;-74
2022/11/07 03:01:11;;;;;;;;;2.50;1.75;;;;;9.40;80.46;100455.22;5029965;28;45708;-75
2022/11/07 03:03:39;;;;;;;;;1.50;1.00;;;;;9.53;80.25;100469.56;5036128;28;45490;-75
2022/11/07 03:06:06;;;;;;;;;1.00;1.00;;;;;9.40;80.29;100444.78;5024982;28;46130;-75
2022/11/07 03:08:32;;;;;;;;;2.00;1.00;;;;;9.46;80.12;100449.31;5033491;28;45296;-76
2022/11/07 03:10:58;;;;;;;;;1.00;1.00;;;;;9.45;79.60;100443.22;5030309;28;45437;-79
2022/11/07 03:13:23;;;;;;;;;2.00;2.00;;;;;9.47;79.09;100454.59;5032605;28;45412;-77
2022/11/07 03:15:49;;;;;;;;;2.00;2.00;;;;;9.56;78.71;100464.41;5034447;28;46471;-75
2022/11/07 03:18:15;;;;;;;;;3.00;2.00;;;;;9.42;78.66;100443.09;5033081;28;45451;-78
2022/11/07 03:20:41;;;;;;;;;2.00;2.00;;;;;9.43;78.65;100442.28;5033608;28;45478;-75
2022/11/07 03:23:07;;;;;;;;;1.00;1.00;;;;;9.48;78.33;100452.84;5035621;28;45490;-78
2022/11/07 03:25:32;;;;;;;;;2.00;2.00;;;;;9.45;79.00;100435.41;5034353;28;46220;-77
2022/11/07 03:27:58;;;;;;;;;2.00;2.00;;;;;9.41;80.00;100423.09;5020937;28;45583;-78
2022/11/07 03:30:23;;;;;;;;;2.00;2.00;;;;;9.47;79.73;100436.34;5018227;28;45441;-76
2022/11/07 03:32:52;;;;;;;;;3.50;3.00;;;;;9.55;79.28;100441.81;5018766;28;45433;-77
2022/11/07 03:35:18;;;;;;;;;1.25;1.00;;;;;9.43;79.11;100420.53;5018297;28;45493;-77
2022/11/07 03:37:45;;;;;;;;;3.00;2.50;;;;;9.46;78.84;100423.25;5016403;28;45461;-74
2022/11/07 03:40:11;;;;;;;;;3.00;3.00;;;;;9.49;78.53;100437.28;5037712;28;45461;-78
2022/11/07 03:42:38;;;;;;;;;2.50;2.00;;;;;9.47;78.49;100435.41;5038287;28;45490;-79
2022/11/07 03:45:04;;;;;;;;;1.25;1.25;;;;;9.53;78.39;100449.56;5037505;28;45680;-77
2022/11/07 03:47:36;;;;;;;;;2.00;2.00;;;;;9.45;78.64;100421.44;5036321;28;45605;-78
2022/11/07 03:50:02;;;;;;;;;2.00;1.25;;;;;9.54;78.29;100447.84;5037983;28;45407;-78
2022/11/07 03:52:27;;;;;;;;;2.00;2.00;;;;;9.40;78.30;100417.81;5036588;28;45601;-78
2022/11/07 03:54:53;;;;;;;;;1.00;1.00;;;;;9.52;78.18;100441.69;5034774;28;45318;-75
2022/11/07 03:57:19;;;;;;;;;2.75;2.00;;;;;9.46;78.34;100439.75;5017538;28;45329;-77
2022/11/07 03:59:44;;;;;;;;;1.00;1.00;;;;;9.43;78.89;100424.03;5017437;28;45212;-75
2022/11/07 04:02:10;;;;;;;;;1.00;1.00;;;;;9.46;78.94;100436.28;5016717;28;45346;-75
2022/11/07 04:04:35;;;;;;;;;2.00;2.00;;;;;9.41;78.95;100425.72;5016238;28;46783;-74
2022/11/07 04:07:01;;;;;;;;;1.00;1.00;;;;;9.35;79.23;100415.03;5017765;28;45496;-74
2022/11/07 04:09:26;;;;;;;;;2.00;2.00;;;;;9.36;79.23;100422.94;5022020;28;45750;-75
2022/11/07 04:17:20;;;;;;;;;2.00;2.00;;;;;9.36;79.26;100435.09;5031934;28;45474;-78
2022/11/07 04:19:47;;;;;;;;;1.50;1.50;;;;;9.41;79.00;100437.84;5036607;28;45390;-75
2022/11/07 04:22:14;;;;;;;;;1.00;1.00;;;;;9.22;79.24;100411.16;5036794;28;45450;-75
2022/11/07 04:24:41;;;;;;;;;1.00;1.00;;;;;9.34;79.16;100437.63;5025526;28;45435;-75
2022/11/07 04:29:53;;;;;;;;;2.00;1.75;;;;;9.30;79.04;100432.28;5037410;28;45397;-75
2022/11/07 04:32:19;;;;;;;;;2.00;2.00;;;;;9.36;79.25;100443.78;5037226;28;45643;-75
2022/11/07 04:34:45;;;;;;;;;1.00;1.00;;;;;9.26;78.90;100419.97;5035316;28;47839;-74
2022/11/07 04:37:10;;;;;;;;;2.50;2.50;;;;;9.25;78.90;100420.81;5035839;28;45195;-75
2022/11/07 04:39:36;;;;;;;;;1.00;1.00;;;;;9.25;78.75;100431.22;5036877;28;45354;-76
2022/11/07 04:42:01;;;;;;;;;2.00;1.25;;;;;9.30;79.18;100440.09;5037261;28;45278;-77
2022/11/07 04:44:27;;;;;;;;;2.00;2.00;;;;;9.12;79.35;100412.56;5035923;28;45644;-76
2022/11/07 04:46:52;;;;;;;;;2.25;1.50;;;;;9.25;79.29;100442.56;5029685;28;45436;-75
2022/11/07 04:49:18;;;;;;;;;2.00;2.00;;;;;9.19;79.14;100438.84;5026351;28;45391;-76
2022/11/07 04:51:43;;;;;;;;;3.50;3.00;;;;;9.19;78.86;100437.16;5017066;28;45652;-76
2022/11/07 04:54:11;;;;;;;;;2.50;2.00;;;;;9.11;78.81;100425.53;5032036;28;46208;-75
2022/11/07 04:56:37;;;;;;;;;2.00;2.00;;;;;9.21;79.11;100443.28;5022422;28;45402;-75
2022/11/07 04:59:02;;;;;;;;;1.00;1.00;;;;;9.21;79.26;100453.72;5026177;28;45656;-75
2022/11/07 05:01:28;;;;;;;;;1.25;1.25;;;;;9.06;78.96;100414.97;5016875;28;45386;-75
2022/11/07 05:03:53;;;;;;;;;2.25;2.25;;;;;9.15;79.01;100435.25;5031903;28;46248;-76
2022/11/07 05:06:19;;;;;;;;;1.75;1.00;;;;;9.19;78.59;100444.97;5016488;28;45472;-79
2022/11/07 05:08:45;;;;;;;;;1.00;1.00;;;;;9.10;78.59;100437.69;5016902;28;45362;-77
2022/11/07 05:11:10;;;;;;;;;2.00;2.00;;;;;9.07;78.53;100427.19;5017308;28;45253;-79
2022/11/07 05:13:36;;;;;;;;;1.25;1.25;;;;;9.04;78.60;100415.78;5016861;28;47928;-78
2022/11/07 05:16:01;;;;;;;;;2.00;2.00;;;;;9.11;78.72;100426.47;5036065;28;45628;-77
2022/11/07 05:18:27;;;;;;;;;2.00;1.00;;;;;9.08;78.84;100428.06;5038763;28;45367;-76
2022/11/07 05:20:52;;;;;;;;;1.75;1.75;;;;;9.07;78.87;100423.69;5040478;28;45243;-76
2022/11/07 05:23:18;;;;;;;;;2.00;1.00;;;;;8.98;78.65;100412.97;5038043;28;47163;-75
2022/11/07 05:25:53;;;;;;;;;2.00;2.00;;;;;8.98;79.00;100410.34;5039947;28;45325;-77
2022/11/07 05:28:25;;;;;;;;;4.50;3.00;;;;;9.02;79.00;100420.03;5038940;28;45364;-76
2022/11/07 05:30:50;;;;;;;;;29.00;27.75;;;;;8.99;78.80;100402.56;5040013;28;45449;-76
2022/11/07 05:33:17;;;;;;;;;26.50;23.50;;;;;9.07;78.69;100432.41;5023573;28;45511;-76
2022/11/07 05:35:44;;;;;;;;;5.25;4.75;;;;;8.83;78.75;100382.91;5019541;28;45353;-74
2022/11/07 05:38:10;;;;;;;;;3.25;3.00;;;;;9.05;78.69;100427.94;5020064;28;45330;-75
2022/11/07 05:40:38;;;;;;;;;2.00;2.00;;;;;8.99;78.96;100423.41;5020121;28;45371;-75
2022/11/07 05:43:10;;;;;;;;;6.75;5.50;;;;;9.00;79.05;100427.81;5019684;28;45488;-76
2022/11/07 05:45:37;;;;;;;;;7.00;6.50;;;;;8.88;79.24;100406.53;5035755;28;45394;-75
2022/11/07 05:48:09;;;;;;;;;7.00;5.25;;;;;8.91;79.50;100417.97;5033241;28;45548;-76
2022/11/07 05:50:35;;;;;;;;;3.25;3.00;;;;;8.87;79.57;100413.47;5018482;28;45421;-77
2022/11/07 05:53:01;;;;;;;;;4.00;3.25;;;;;8.74;79.98;100403.47;5034190;28;47033;-77
2022/11/07 05:55:27;;;;;;;;;2.00;2.00;;;;;8.22;81.13;100311.34;5035271;28;45302;-76
2022/11/07 05:57:54;;;;;;;;;3.75;3.00;;;;;8.76;81.20;100400.06;5019846;28;45528;-75
2022/11/07 06:00:20;;;;;;;;;3.00;3.00;;;;;8.78;81.16;100418.34;5021147;28;45283;-75
2022/11/07 06:02:59;;;;;;;;;2.25;2.25;;;;;8.63;80.82;100381.34;5039345;28;46273;-75
2022/11/07 06:05:25;;;;;;;;;3.75;3.00;;;;;8.79;80.42;100411.41;5021417;28;45535;-78
2022/11/07 06:07:51;;;;;;;;;4.25;4.00;;;;;8.78;80.56;100414.88;5017831;28;45555;-76
2022/11/07 06:10:17;;;;;;;;;3.25;3.25;;;;;8.80;80.09;100421.91;5019706;28;45330;-76
2022/11/07 06:12:42;;;;;;;;;3.00;2.75;;;;;8.86;80.24;100434.25;5019412;28;46011;-75
2022/11/07 06:15:08;;;;;;;;;3.00;3.00;;;;;8.70;79.29;100412.88;5019554;28;45223;-77
2022/11/07 06:17:34;;;;;;;;;3.00;3.00;;;;;8.81;79.76;100433.19;5030053;28;45664;-75
2022/11/07 06:19:59;;;;;;;;;5.50;5.00;;;;;8.69;79.13;100413.69;5019355;28;45568;-75
2022/11/07 06:22:25;;;;;;;;;4.50;4.00;;;;;8.70;79.06;100414.59;5018939;28;45696;-77
2022/11/07 06:24:51;;;;;;;;;3.75;3.25;;;;;8.69;79.05;100429.31;5018340;28;45553;-78
2022/11/07 06:27:17;;;;;;;;;9.00;9.00;;;;;8.71;79.34;100439.78;5019317;28;45477;-77
2022/11/07 06:29:42;;;;;;;;;3.75;2.75;;;;;8.46;79.19;100388.59;5019221;28;45282;-77
2022/11/07 06:32:08;;;;;;;;;3.25;3.00;;;;;8.60;79.64;100421.19;5034330;28;47149;-75
2022/11/07 06:34:33;;;;;;;;;3.50;3.25;;;;;8.69;79.58;100434.53;5018963;28;45515;-75
2022/11/07 06:36:59;;;;;;;;;3.00;3.00;;;;;8.70;79.54;100428.50;5021522;28;45446;-76
2022/11/07 06:39:24;;;;;;;;;2.00;2.00;;;;;8.58;79.18;100407.25;5018965;28;45224;-76
2022/11/07 06:41:50;;;;;;;;;2.75;2.25;;;;;8.41;80.00;100384.88;5017611;28;45527;-75
2022/11/07 06:44:17;;;;;;;;;2.75;2.00;;;;;8.58;80.46;100417.66;5018980;28;45350;-77
2022/11/07 06:46:45;;;;;;;;;8.25;8.00;;;;;8.60;80.89;100415.13;5018896;28;45506;-77
2022/11/07 06:49:12;;;;;;;;;10.00;7.50;;;;;8.61;80.18;100416.88;5017644;28;45479;-75
2022/11/07 06:51:37;;;;;;;;;7.75;7.25;;;;;8.59;80.19;100414.19;5022406;28;46123;-78
2022/11/07 06:54:03;;;;;;;;;4.00;4.00;;;;;8.55;79.71;100423.66;5038742;28;45390;-75
2022/11/07 06:56:29;;;;;;;;;8.00;7.00;;;;;8.63;79.33;100426.50;5038956;28;45504;-75
2022/11/07 06:58:54;;;;;;;;;6.00;5.25;;;;;8.70;79.40;100430.22;5036916;28;45675;-75
2022/11/07 07:01:20;;;;;;;;;6.00;6.00;;;;;8.07;78.92;100327.28;5036881;28;47957;-75
2022/11/07 07:03:45;;;;;;;;;13.00;10.00;;;;;8.69;78.81;100429.31;5038319;28;45453;-78
2022/11/07 07:06:13;;;;;;;;;23.50;21.75;;;;;8.71;79.24;100437.19;5038601;28;45613;-78
2022/11/07 07:08:39;;;;;;;;;18.00;13.25;;;;;8.70;79.04;100420.69;5025106;28;45305;-77
2022/11/07 07:11:07;;;;;;;;;13.00;11.50;;;;;8.58;78.65;100407.25;5018828;28;45412;-75
2022/11/07 07:13:33;;;;;;;;;14.25;11.50;;;;;8.79;78.97;100435.75;5021387;28;45558;-77
2022/11/07 07:15:59;;;;;;;;;23.00;22.25;;;;;8.84;78.94;100434.19;5018065;28;45394;-77
2022/11/07 07:18:26;;;;;;;;;20.75;18.00;;;;;8.86;79.02;100440.34;5050947;28;45525;-75
2022/11/07 07:20:54;;;;;;;;;11.25;10.00;;;;;8.84;78.83;100434.19;5055680;28;47022;-76
2022/11/07 07:23:20;;;;;;;;;10.50;10.00;;;;;8.91;78.72;100432.69;5034709;28;45343;-76
2022/11/07 07:25:46;;;;;;;;;35.25;33.00;;;;;8.92;79.03;100437.94;5037004;28;45359;-77
2022/11/07 07:28:12;;;;;;;;;28.75;27.50;;;;;8.80;78.88;100408.00;5052640;28;45288;-77
2022/11/07 07:30:38;;;;;;;;;21.00;19.50;;;;;8.96;78.64;100437.22;5034550;28;45727;-75
2022/11/07 07:33:04;;;;;;;;;25.75;25.50;;;;;9.05;78.91;100441.88;5060343;28;45510;-74
2022/11/07 07:35:30;;;;;;;;;29.00;23.00;;;;;8.94;78.89;100410.22;5035179;28;45571;-76
2022/11/07 07:37:56;;;;;;;;;20.50;19.50;;;;;9.06;78.96;100441.03;5052206;28;45378;-76
2022/11/07 07:40:22;;;;;;;;;36.25;34.25;;;;;9.10;78.57;100442.03;5035581;28;46198;-75
2022/11/07 07:42:47;;;;;;;;;39.75;36.25;;;;;9.14;78.49;100446.50;5035865;28;45371;-73
2022/11/07 07:45:15;;;;;;;;;46.50;38.50;;;;;9.20;78.42;100440.63;5035967;28;45461;-73
2022/11/07 07:47:40;;;;;;;;;24.25;22.25;;;;;9.34;78.15;100448.06;5036350;28;45523;-75
2022/11/07 07:50:08;;;;;;;;;19.00;17.25;;;;;9.50;78.07;100464.22;5034798;28;46711;-73
2022/11/07 07:52:34;;;;;;;;;16.00;14.75;;;;;9.61;77.81;100452.44;5036302;28;45564;-73
2022/11/07 07:54:59;;;;;;;;;14.50;13.00;;;;;9.56;77.88;100420.97;5033731;28;45622;-77
2022/11/07 07:57:25;;;;;;;;;23.00;21.00;;;;;9.85;78.03;100438.41;5033971;28;45464;-77
2022/11/07 07:59:50;;;;;;;;;28.50;25.00;;;;;10.62;77.92;100420.66;5051427;28;47737;-75
2022/11/07 08:02:16;;;;;;;;;26.00;25.00;;;;;13.05;72.00;100441.06;5034650;28;45753;-75
2022/11/07 08:04:42;;;;;;;;;11.00;11.00;;;;;15.67;59.35;100404.09;5036173;28;45389;-77
2022/11/07 08:07:08;;;;;;;;;15.25;14.25;;;;;17.82;57.03;100421.44;5051479;28;45577;-76
2022/11/07 08:09:37;;;;;;;;;22.00;19.25;;;;;18.53;54.16;100403.63;5034218;28;47272;-75
2022/11/07 08:12:04;;;;;;;;;13.25;12.75;;;;;16.87;55.80;100399.44;5034970;28;45314;-77
2022/11/07 08:14:29;;;;;;;;;19.75;17.00;;;;;15.69;58.79;100420.81;5035466;28;45589;-77
2022/11/07 08:16:55;;;;;;;;;16.50;14.25;;;;;14.98;60.83;100435.13;5036571;28;45537;-78
2022/11/07 08:19:21;;;;;;;;;19.75;16.00;;;;;14.38;62.87;100423.88;5036196;28;46198;-78
2022/11/07 08:21:47;;;;;;;;;13.50;13.50;;;;;15.19;63.42;100407.25;5036684;28;45889;-77
2022/11/07 08:24:12;;;;;;;;;11.00;10.00;;;;;17.85;57.77;100384.50;5036734;28;45402;-78
2022/11/07 08:26:38;;;;;;;;;13.50;10.50;;;;;20.01;52.43;100405.16;5048920;28;45680;-77
2022/11/07 08:29:05;;;;;;;;;18.00;17.25;;;;;21.42;48.76;100410.31;5032329;28;46120;-75
2022/11/07 08:31:30;;;;;;;;;15.50;14.00;;;;;22.40;45.66;100389.00;5034572;28;45476;-76
2022/11/07 08:33:57;;;;;;;;;13.00;12.50;;;;;23.14;43.14;100404.22;5034208;28;45507;-74
2022/11/07 08:36:24;;;;;;;;;13.67;13.33;;;;;23.55;43.53;100380.09;5049197;28;45610;-75
2022/11/07 08:38:49;;;;;;;;;16.67;15.33;;;;;23.93;43.00;100356.88;5033661;28;47564;-76
2022/11/07 08:41:15;;;;;;;;;14.67;12.67;;;;;24.51;41.88;100373.91;5051663;28;45419;-75
2022/11/07 08:43:40;;;;;;;;;7.33;7.33;;;;;24.93;42.92;100369.91;5031520;28;45409;-75
2022/11/07 08:46:06;;;;;;;;;15.67;13.67;;;;;25.22;40.17;100352.09;5032476;28;45390;-73
2022/11/07 08:48:32;;;;;;;;;11.67;10.00;;;;;25.45;39.46;100362.88;5035326;28;46285;-77
2022/11/07 08:50:58;;;;;;;;;4.67;4.67;;;;;25.74;40.28;100371.66;5035657;28;45362;-76
2022/11/07 08:53:25;;;;;;;;;4.00;3.67;;;;;25.86;38.36;100352.50;5035768;28;45404;-76
2022/11/07 08:55:51;;;;;;;;;5.67;5.67;;;;;26.00;38.90;100384.13;5032412;28;45658;-76
2022/11/07 08:58:18;;;;;;;;;9.33;8.67;;;;;25.85;38.91;100382.88;5034809;28;47104;-75
2022/11/07 09:00:44;;;;;;;;;5.67;5.67;;;;;25.62;38.85;100358.72;5046214;28;45542;-77
2022/11/07 09:03:10;;;;;;;;;5.00;5.00;;;;;25.57;40.43;100380.31;5035444;28;45456;-76
2022/11/07 09:05:38;;;;;;;;;4.33;3.67;;;;;25.49;40.08;100367.19;5035688;28;45440;-77
2022/11/07 09:08:04;;;;;;;;;8.67;8.33;;;;;25.45;41.54;100362.88;5035945;28;45516;-76
2022/11/07 09:10:29;;;;;;;;;8.00;7.00;;;;;25.60;39.20;100364.13;5035244;28;45905;-76
2022/11/07 09:12:55;;;;;;;;;7.33;6.00;;;;;25.47;39.03;100357.47;5016112;28;45780;-78
2022/11/07 09:15:20;;;;;;;;;4.33;4.00;;;;;25.56;39.25;100367.84;5052996;28;45332;-75
2022/11/07 09:17:47;;;;;;;;;4.67;4.67;;;;;25.68;38.98;100350.47;5032049;28;45599;-75
2022/11/07 09:20:13;;;;;;;;;5.67;5.67;;;;;26.01;38.06;100379.69;5034036;28;45517;-74
2022/11/07 09:22:39;;;;;;;;;6.00;5.00;;;;;25.97;37.83;100374.44;5034680;28;45620;-74
2022/11/07 09:25:05;;;;;;;;;7.00;7.00;;;;;25.88;37.81;100360.47;5029566;28;45601;-75
2022/11/07 09:27:31;;;;;;;;;9.00;8.00;;;;;26.03;38.31;100377.81;5035188;28;46021;-74
2022/11/07 09:29:56;;;;;;;;;8.00;8.00;;;;;25.99;38.06;100364.53;5034738;28;45387;-75
2022/11/07 09:32:22;;;;;;;;;5.00;5.00;;;;;25.84;38.67;100330.25;5034352;28;45538;-74
2022/11/07 09:34:47;;;;;;;;;3.33;3.00;;;;;25.80;38.00;100317.94;5034328;28;45319;-74
2022/11/07 09:37:13;;;;;;;;;2.33;2.00;;;;;25.82;38.41;100331.25;5034491;28;45678;-74
2022/11/07 09:39:38;;;;;;;;;3.00;3.00;;;;;26.05;39.22;100365.25;5035417;28;45779;-74
2022/11/07 09:42:24;;;;;;;;;3.67;2.00;;;;;25.85;39.34;100350.75;5035851;28;45482;-77
2022/11/07 09:44:56;;;;;;;;;1.67;1.00;;;;;25.68;40.91;100364.72;5035047;28;45541;-75
2022/11/07 09:47:28;;;;;;;;;1.33;1.00;;;;;25.34;40.72;100367.72;5043636;28;46276;-74
2022/11/07 09:50:02;;;;;;;;;2.00;2.00;;;;;25.03;42.11;100363.38;5034817;28;45326;-74
2022/11/07 09:52:41;;;;;;;;;0.67;0.67;;;;;24.91;43.43;100356.63;5035199;28;45576;-75
2022/11/07 09:55:30;;;;;;;;;1.00;1.00;;;;;24.74;41.36;100351.81;5034192;28;45453;-74
2022/11/07 09:58:00;;;;;;;;;1.00;0.00;;;;;24.55;39.76;100347.94;5032945;28;46733;-74
2022/11/07 10:00:29;;;;;;;;;0.00;0.00;;;;;24.20;39.63;100293.84;5036571;28;45380;-73
2022/11/07 10:02:57;;;;;;;;;1.00;1.00;;;;;24.38;39.27;100346.66;5032960;28;45421;-75
2022/11/07 10:05:45;;;;;;;;;0.67;0.33;;;;;24.20;38.47;100329.41;5039013;28;45355;-74
2022/11/07 10:08:37;;;;;;;;;2.00;1.00;;;;;24.08;39.36;100335.09;5039146;28;45496;-73
2022/11/07 10:11:24;;;;;;;;;0.33;0.33;;;;;23.86;40.71;100349.97;5054652;28;45288;-74
2022/11/07 10:14:00;;;;;;;;;0.00;0.00;;;;;23.85;41.81;100341.09;5038919;28;45416;-73
2022/11/07 10:16:43;;;;;;;;;1.00;1.00;;;;;23.62;42.45;100341.69;5039256;28;45314;-73
2022/11/07 10:19:27;;;;;;;;;0.00;0.00;;;;;23.65;42.54;100330.06;5038550;28;45541;-74
2022/11/07 10:22:10;;;;;;;;;23.00;21.33;;;;;23.87;43.25;100325.91;5037350;28;45441;-73
2022/11/07 10:24:53;;;;;;;;;1.00;1.00;;;;;24.00;42.18;100327.31;5039225;28;45546;-73
2022/11/07 10:27:20;;;;;;;;;1.67;1.67;;;;;23.56;41.42;100302.75;5023337;28;45433;-75
2022/11/07 10:29:51;;;;;;;;;3.33;3.00;;;;;23.43;40.36;100293.31;5018921;28;45371;-75
2022/11/07 10:32:34;;;;;;;;;1.00;1.00;;;;;23.40;40.58;100298.75;5018718;28;45386;-75
2022/11/07 10:35:24;;;;;;;;;2.00;2.00;;;;;23.41;42.13;100324.47;5023578;28;45592;-75
2022/11/07 10:37:55;;;;;;;;;10.67;9.33;;;;;23.46;42.08;100301.25;5039017;28;45434;-74
2022/11/07 10:40:22;;;;;;;;;10.00;10.00;;;;;23.43;42.28;100319.97;5038298;28;45430;-75
2022/11/07 10:42:50;;;;;;;;;3.00;2.33;;;;;23.46;43.07;100301.25;5037205;28;45429;-75
2022/11/07 10:45:16;;;;;;;;;3.00;3.00;;;;;23.73;42.33;100309.38;5037385;28;45426;-75
2022/11/07 10:47:53;;;;;;;;;2.67;2.00;;;;;23.63;42.24;100304.34;5038723;28;45417;-74
2022/11/07 10:50:22;;;;;;;;;6.00;4.00;;;;;23.66;42.49;100303.38;5038058;28;45520;-75
2022/11/07 10:53:08;;;;;;;;;1.00;1.00;;;;;23.65;42.21;100292.72;5018653;28;45480;-76
2022/11/07 10:55:43;;;;;;;;;2.00;1.67;;;;;23.51;42.94;100301.97;5031494;28;45299;-75
2022/11/07 10:58:19;;;;;;;;;2.00;1.00;;;;;23.38;42.67;100281.94;5029996;28;46135;-74
2022/11/07 11:00:59;;;;;;;;;1.00;1.00;;;;;23.13;43.25;100277.22;5035247;28;47585;-74
2022/11/07 11:03:29;;;;;;;;;4.33;3.67;;;;;23.27;43.47;100297.31;5052138;28;45552;-74
2022/11/07 11:05:54;;;;;;;;;3.67;3.00;;;;;23.24;43.49;100284.97;5035724;28;45586;-76
2022/11/07 11:08:22;;;;;;;;;5.33;5.00;;;;;23.28;42.49;100269.75;5036988;28;45494;-76
2022/11/07 11:10:49;;;;;;;;;2.00;2.00;;;;;23.28;43.50;100289.28;5036715;28;46677;-74
2022/11/07 11:13:32;;;;;;;;;1.00;1.00;;;;;23.05;41.17;100265.91;5037488;28;45413;-77
2022/11/07 11:16:06;;;;;;;;;1.67;1.00;;;;;22.97;43.32;100262.53;5037695;28;45382;-78
2022/11/07 11:18:32;;;;;;;;;4.00;4.00;;;;;22.98;43.86;100264.28;5037957;28;45376;-75
2022/11/07 11:21:02;;;;;;;;;3.33;3.00;;;;;22.91;43.20;100246.72;5037561;28;45934;-73
2022/11/07 11:23:41;;;;;;;;;3.67;3.67;;;;;22.92;43.62;100253.78;5025589;28;45716;-76
2022/11/07 11:26:14;;;;;;;;;3.33;3.00;;;;;22.99;44.22;100250.91;5022449;28;45685;-74
2022/11/07 11:28:49;;;;;;;;;3.33;3.00;;;;;23.02;42.76;100223.38;5036453;28;45725;-76
2022/11/07 11:31:28;;;;;;;;;0.67;0.67;;;;;23.02;37.31;100221.56;5036683;28;46636;-75
2022/11/07 11:34:09;;;;;;;;;0.00;0.00;;;;;23.07;38.54;100213.44;5036834;28;45499;-75
2022/11/07 11:36:43;;;;;;;;;2.00;2.00;;;;;23.27;39.15;100234.22;5037387;28;45484;-74
2022/11/07 11:39:25;;;;;;;;;1.33;1.33;;;;;23.29;38.13;100227.06;5037191;28;46219;-74
2022/11/07 11:41:56;;;;;;;;;5.00;3.00;;;;;23.07;41.23;100221.44;5037166;28;45515;-73
2022/11/07 11:44:40;;;;;;;;;2.00;2.00;;;;;23.02;41.74;100215.38;5037007;28;45773;-75